Latest Weather Observations for Lameroo AWS

IDS60801

Issued at 7:01 pm CDT Tuesday 17 January 2017 (issued every 30 minutes, with the page automatically refreshed every 10 minutes)

About weather observations | Map of weather stations | Latest weather observations for SA | Other Formats
Station Details ID: 025562 Name: AUSTIN PLAINS Lat: -35.38 Lon: 140.54 Height: 110.08 m
Data from the previous 72 hours. | See also: Recent months at Lameroo AWS
Date/Time
CDT
Temp
°C
App
Temp
°C
Dew
Point
°C
Rel
Hum
%
Delta-T
°C
Wind Press
QNH
hPa
Press
MSL
hPa
Rain since
9am
mm
Dir  Spd
km/h
Gust
km/h
Spd
kts
Gust
kts
17/07:00pm 36.9 28.3 0.3 10 18.5 SW 35 46 19 25 1005.3 1004.8 0.0
17/06:30pm 38.3 29.9 1.3 10 19.2 SW 35 50 19 27 1004.8 1004.3 0.0
17/06:00pm 39.2 30.9 2.0 10 19.6 SW 35 48 19 26 1004.5 1004.0 0.0
17/05:30pm 41.7 34.7 -3.1 6 22.2 WSW 24 37 13 20 1004.4 1003.9 0.0
17/05:00pm 42.3 35.4 -2.7 6 22.4 W 24 35 13 19 1004.4 1003.9 0.0
17/04:30pm 42.5 36.0 -2.6 6 22.6 W 22 35 12 19 1004.5 1004.0 0.0
17/04:20pm 42.3 34.6 -2.7 6 22.4 W 28 46 15 25 1004.6 1004.1 0.0
17/04:00pm 42.4 36.3 -2.7 6 22.5 WNW 20 37 11 20 1004.7 1004.2 0.0
17/03:42pm 42.1 34.8 -2.9 6 22.3 W 26 44 14 24 1004.7 1004.2 0.0
17/03:30pm 41.4 34.8 -3.4 6 22.0 NW 22 37 12 20 1005.0 1004.5 0.0
17/03:00pm 42.0 36.1 -0.9 7 22.0 WNW 20 32 11 17 1005.4 1004.9 0.0
17/02:30pm 42.4 35.5 -2.7 6 22.5 WNW 24 35 13 19 1005.9 1005.4 0.0
17/02:00pm 41.5 33.9 -5.7 5 22.4 WNW 26 39 14 21 1006.3 1005.8 0.0
17/01:30pm 41.1 32.6 -3.6 6 21.9 WNW 32 46 17 25 1006.7 1006.2 0.0
17/01:00pm 40.5 31.9 -4.0 6 21.5 WNW 32 50 17 27 1007.2 1006.7 0.0
17/12:44pm 40.9 33.4 -1.6 7 21.3 NW 28 48 15 26 1007.2 1006.7 0.0
17/12:30pm 40.0 32.0 -2.3 7 20.9 NW 30 44 16 24 1007.5 1007.0 0.0
17/12:00pm 40.1 31.7 -2.2 7 21.0 NW 32 52 17 28 1007.8 1007.3 0.0
17/11:31am 39.8 31.5 -0.6 8 20.5 NW 33 54 18 29 1008.0 1007.5 0.0
17/11:30am 38.9 30.5 -1.3 8 20.1 NW 33 46 18 25 1008.0 1007.5 0.0
17/11:00am 38.3 30.6 -0.1 9 19.4 NW 30 39 16 21 1008.2 1007.7 0.0
17/10:30am 37.1 28.7 -1.0 9 18.9 NNW 33 39 18 21 1008.5 1008.0 0.0
17/10:00am 36.0 28.6 -0.4 10 18.1 NNW 28 39 15 21 1008.6 1008.1 0.0
17/09:30am 34.2 27.4 0.8 12 16.7 NNW 26 33 14 18 1008.7 1008.2 0.0
17/09:00am 32.1 25.8 1.3 14 15.3 N 24 30 13 16 1009.1 1008.6 0.0
17/08:30am 28.1 24.5 5.0 23 12.0 N 13 17 7 9 1009.2 1008.7 0.0
17/08:00am 25.0 21.3 4.7 27 10.2 NNE 13 17 7 9 1009.2 1008.7 0.0
17/07:30am 20.3 17.6 7.3 43 6.7 NE 11 13 6 7 1009.1 1008.6 0.0
17/07:00am 17.6 14.3 7.9 53 5.0 ENE 15 15 8 8 1009.0 1008.5 0.0
17/06:30am 17.0 13.7 7.9 55 4.6 ENE 15 17 8 9 1008.7 1008.2 0.0
17/06:00am 16.1 12.7 7.8 58 4.2 ENE 15 17 8 9 1008.6 1008.1 0.0
17/05:30am 17.4 14.4 7.5 52 5.0 E 13 13 7 7 1008.3 1007.8 0.0
17/05:00am 16.7 14.1 7.9 56 4.5 E 11 13 6 7 1008.3 1007.8 0.0
17/04:30am 16.8 13.4 7.7 55 4.6 ENE 15 17 8 9 1008.1 1007.6 0.0
17/04:00am 17.1 14.1 7.5 53 4.8 ENE 13 15 7 8 1008.2 1007.7 0.0
17/03:30am 17.5 14.1 7.5 52 5.1 ENE 15 15 8 8 1008.2 1007.7 0.0
17/03:00am 16.8 14.3 8.0 56 4.5 ENE 11 13 6 7 1008.4 1007.9 0.0
17/02:30am 17.3 14.5 8.4 56 4.6 E 13 15 7 8 1008.6 1008.1 0.0
17/02:00am 17.7 15.2 8.3 54 4.8 E 11 13 6 7 1009.0 1008.5 0.0
17/01:30am 17.7 15.2 8.0 53 5.0 E 11 13 6 7 1009.2 1008.7 0.0
17/01:00am 19.8 17.4 6.9 43 6.6 ESE 9 11 5 6 1009.6 1009.1 0.0
17/12:30am 20.1 17.0 7.1 43 6.7 SE 13 15 7 8 1009.9 1009.4 0.0
17/12:00am 21.6 18.5 7.1 39 7.5 SSE 13 15 7 8 1009.9 1009.4 0.0
 
Date/Time
CDT
Temp
°C
App
Temp
°C
Dew
Point
°C
Rel
Hum
%
Delta-T
°C
Wind Press
QNH
hPa
Press
MSL
hPa
Rain since
9am
mm
Dir  Spd
km/h
Gust
km/h
Spd
kts
Gust
kts
16/11:30pm 21.9 18.0 7.0 38 7.7 SSE 17 19 9 10 1010.0 1009.5 0.0
16/11:00pm 22.2 18.2 6.8 37 7.9 SSE 17 17 9 9 1010.0 1009.5 0.0
16/10:30pm 23.1 19.3 6.0 33 8.7 SSE 15 15 8 8 1010.0 1009.5 0.0
16/10:00pm 24.6 20.7 5.4 29 9.8 S 15 17 8 9 1010.1 1009.6 0.0
16/09:30pm 26.0 22.4 5.0 26 10.7 SSE 13 15 7 8 1009.9 1009.4 0.0
16/09:00pm 26.1 22.7 4.0 24 11.1 S 11 15 6 8 1009.9 1009.4 0.0
16/08:30pm 28.9 25.1 3.7 20 12.8 S 13 17 7 9 1009.8 1009.3 0.0
16/08:00pm 30.3 26.8 3.4 18 13.7 SSW 11 11 6 6 1009.7 1009.2 0.0
16/07:30pm 33.5 29.6 1.3 13 16.2 SSW 11 15 6 8 1009.5 1009.0 0.0
16/07:00pm 35.0 30.8 1.4 12 17.0 SSW 13 19 7 10 1009.4 1008.9 0.0
16/06:30pm 35.8 32.2 0.8 11 17.7 WNW 9 22 5 12 1009.3 1008.8 0.0
16/06:00pm 36.2 32.3 1.1 11 17.9 WNW 11 22 6 12 1009.3 1008.8 0.0
16/05:30pm 36.5 32.4 0.0 10 18.3 WSW 11 20 6 11 1009.6 1009.1 0.0
16/05:00pm 36.0 31.5 -0.4 10 18.1 W 13 24 7 13 1010.0 1009.5 0.0
16/04:30pm 35.5 31.9 0.6 11 17.6 N 9 20 5 11 1010.0 1009.5 0.0
16/04:00pm 35.5 32.3 0.6 11 17.5 NW 7 17 4 9 1010.2 1009.7 0.0
16/03:30pm 35.4 32.4 1.7 12 17.2 WSW 7 19 4 10 1010.7 1010.2 0.0
16/03:00pm 35.8 30.7 0.8 11 17.7 W 17 26 9 14 1011.0 1010.5 0.0
16/02:30pm 34.5 29.8 1.0 12 16.9 WNW 15 24 8 13 1011.3 1010.9 0.0
16/02:00pm 34.2 29.7 1.9 13 16.4 NW 15 32 8 17 1011.6 1011.2 0.0
16/01:30pm 33.0 27.7 2.0 14 15.7 NW 19 28 10 15 1012.1 1011.7 0.0
16/01:00pm 33.2 27.9 2.1 14 15.8 NNW 19 26 10 14 1012.6 1012.2 0.0
16/12:30pm 31.6 27.9 4.4 18 14.2 NNW 13 24 7 13 1012.8 1012.4 0.0
16/12:00pm 31.1 26.2 4.0 18 14.0 NNW 19 32 10 17 1013.2 1012.8 0.0
16/11:30am 30.4 25.9 4.2 19 13.5 NNW 17 28 9 15 1013.4 1013.0 0.0
16/11:00am 29.7 25.0 5.1 21 12.9 NNW 19 30 10 16 1013.9 1013.4 0.0
16/10:30am 29.1 24.7 6.5 24 12.1 N 19 26 10 14 1014.2 1013.7 0.0
16/10:00am 26.9 23.1 7.4 29 10.4 NNE 17 24 9 13 1014.5 1014.0 0.0
16/09:30am 25.6 22.1 8.6 34 9.2 NE 17 22 9 12 1014.8 1014.3 0.0
16/09:00am 23.7 20.4 9.7 41 7.7 NE 17 20 9 11 1014.9 1014.4 0.0
16/08:30am 22.0 19.0 10.5 48 6.3 ENE 17 20 9 11 1014.9 1014.4 0.0
16/08:00am 19.3 15.9 11.1 59 4.5 ENE 20 24 11 13 1014.6 1014.1 0.0
16/07:30am 16.3 13.5 11.5 73 2.6 ENE 17 20 9 11 1014.4 1013.9 0.0
16/07:00am 13.7 11.2 10.9 83 1.5 E 15 17 8 9 1014.3 1013.8 0.0
16/06:30am 12.0 9.1 9.7 86 1.2 E 15 15 8 8 1014.4 1013.9 0.0
16/06:00am 12.0 9.6 9.9 87 1.1 E 13 15 7 8 1014.2 1013.7 0.0
16/05:30am 12.3 9.9 10.0 86 1.2 E 13 15 7 8 1014.0 1013.5 0.0
16/05:00am 13.0 10.7 10.5 85 1.3 ESE 13 15 7 8 1014.0 1013.5 0.0
16/04:30am 12.3 10.3 10.2 87 1.1 SE 11 13 6 7 1013.9 1013.4 0.0
16/04:00am 12.4 10.8 10.3 87 1.1 SE 9 11 5 6 1013.9 1013.4 0.0
16/03:30am 12.3 10.3 10.2 87 1.1 SSE 11 13 6 7 1014.0 1013.5 0.0
16/03:00am 12.7 10.8 10.6 87 1.1 SSE 11 13 6 7 1014.1 1013.6 0.0
16/02:30am 12.5 10.5 10.2 86 1.2 S 11 11 6 6 1014.1 1013.6 0.0
16/02:00am 13.0 11.1 10.4 84 1.4 S 11 13 6 7 1014.3 1013.8 0.0
16/01:30am 13.8 11.6 10.8 82 1.6 S 13 15 7 8 1014.6 1014.1 0.0
16/01:00am 13.8 11.2 10.6 81 1.7 S 15 15 8 8 1014.9 1014.4 0.0
16/12:30am 14.9 12.0 10.9 77 2.1 S 17 20 9 11 1015.1 1014.6 0.0
16/12:00am 15.4 12.4 10.8 74 2.5 S 17 19 9 10 1015.2 1014.7 0.0
 
Date/Time
CDT
Temp
°C
App
Temp
°C
Dew
Point
°C
Rel
Hum
%
Delta-T
°C
Wind Press
QNH
hPa
Press
MSL
hPa
Rain since
9am
mm
Dir  Spd
km/h
Gust
km/h
Spd
kts
Gust
kts
15/11:30pm 16.3 13.3 10.8 70 2.9 S 17 20 9 11 1015.3 1014.8 0.0
15/11:00pm 17.1 14.2 10.9 67 3.3 S 17 20 9 11 1015.4 1014.9 0.0
15/10:30pm 18.2 14.9 10.8 62 4.0 S 19 20 10 11 1015.6 1015.1 0.0
15/10:00pm 18.8 15.9 10.9 60 4.3 S 17 20 9 11 1015.6 1015.1 0.0
15/09:30pm 20.2 16.8 10.6 54 5.2 S 19 22 10 12 1015.6 1015.1 0.0
15/09:00pm 21.0 18.0 10.5 51 5.7 SSW 17 20 9 11 1015.6 1015.1 0.0
15/08:30pm 22.9 20.0 8.2 39 7.8 SSE 13 15 7 8 1015.5 1015.0 0.0
15/08:00pm 26.0 23.0 7.6 31 9.8 S 13 17 7 9 1015.3 1014.8 0.0
15/07:30pm 27.2 23.9 6.6 27 10.9 S 13 19 7 10 1015.3 1014.8 0.0
15/07:00pm 28.0 24.7 6.2 25 11.5 SSW 13 19 7 10 1015.1 1014.6 0.0
15/06:30pm 28.3 25.3 5.8 24 11.8 S 11 17 6 9 1015.1 1014.6 0.0
15/06:00pm 28.7 25.5 6.7 25 11.7 S 13 20 7 11 1015.1 1014.6 0.0
15/05:30pm 28.7 25.2 5.5 23 12.1 SSW 13 20 7 11 1015.3 1014.8 0.0
15/05:00pm 28.3 25.5 7.0 26 11.4 SSW 11 20 6 11 1015.7 1015.2 0.0
15/04:30pm 28.1 24.8 6.2 25 11.5 SSE 13 28 7 15 1016.0 1015.5 0.0
15/04:00pm 28.5 26.1 7.1 26 11.5 SSW 9 20 5 11 1016.5 1016.0 0.0
15/03:30pm 26.6 24.1 6.6 28 10.5 SSE 9 19 5 10 1016.9 1016.4 0.0
15/03:00pm 26.0 22.9 5.6 27 10.5 SSW 11 20 6 11 1017.4 1016.9 0.0
15/02:30pm 26.1 22.8 6.2 28 10.4 SW 13 20 7 11 1017.6 1017.1 0.0
15/02:00pm 25.5 23.0 6.7 30 9.9 SSE 9 22 5 12 1017.9 1017.4 0.0
15/01:30pm 24.1 21.3 6.8 33 9.0 SSE 11 19 6 10 1018.3 1017.8 0.0
15/01:00pm 23.1 20.4 7.2 36 8.3 SSE 11 20 6 11 1018.6 1018.1 0.0
15/12:30pm 22.1 19.2 6.7 37 7.9 S 11 22 6 12 1018.9 1018.4 0.0
15/12:00pm 21.3 19.3 7.2 40 7.3 SSE 7 13 4 7 1019.3 1018.9 0.0
15/11:30am 20.7 18.7 7.3 42 6.9 SSW 7 15 4 8 1019.3 1018.9 0.0
15/11:00am 19.7 17.1 7.8 46 6.1 SSE 11 19 6 10 1019.7 1019.3 0.0
15/10:30am 18.5 15.5 7.9 50 5.4 SSE 13 20 7 11 1019.9 1019.5 0.0
15/10:00am 18.1 16.1 8.7 54 4.9 SE 9 17 5 9 1020.2 1019.8 0.0
15/09:30am 17.2 14.7 8.4 56 4.5 SE 11 19 6 10 1020.4 1020.0 0.0
15/09:00am 16.4 13.6 8.4 59 4.1 SSE 13 22 7 12 1020.6 1020.2 0.0
15/08:30am 15.7 11.8 8.7 63 3.6 SE 19 24 10 13 1020.2 1019.8 0.0
15/08:00am 14.4 11.5 9.6 73 2.5 SE 15 19 8 10 1020.0 1019.6 0.0
15/07:30am 12.8 10.3 9.6 81 1.6 SE 13 19 7 10 1019.8 1019.4 0.0
15/07:00am 11.4 9.6 9.5 88 1.0 SSE 9 11 5 6 1019.4 1019.0 0.0
15/06:30am 9.7 7.7 8.5 92 0.6 S 9 9 5 5 1019.3 1018.9 0.0
15/06:00am 9.4 7.2 8.0 91 0.7 S 9 9 5 5 1019.1 1018.7 0.0
15/05:30am 9.2 7.5 7.6 90 0.8 SSW 6 7 3 4 1018.8 1018.3 0.0
15/05:00am 9.1 7.1 7.2 88 0.9 S 7 7 4 4 1018.4 1017.9 0.0
15/04:30am 10.5 8.4 8.4 87 1.0 SSE 9 11 5 6 1017.9 1017.4 0.0
15/04:00am 11.3 8.6 9.0 86 1.2 S 13 19 7 10 1017.7 1017.2 0.0
15/03:30am 10.8 8.1 9.1 89 0.8 S 13 15 7 8 1017.6 1017.1 0.0
15/03:00am 10.1 7.3 8.5 90 0.8 SSW 13 13 7 7 1018.0 1017.5 0.0
15/02:30am 10.8 8.5 9.1 89 0.8 SSW 11 13 6 7 1018.0 1017.5 0.0
15/02:00am 10.9 9.0 9.0 88 0.9 SW 9 9 5 5 1018.2 1017.7 0.0
15/01:30am 11.6 9.0 9.3 86 1.2 SSW 13 15 7 8 1018.0 1017.5 0.0
15/01:00am 12.5 9.7 9.9 84 1.3 SSW 15 17 8 9 1018.3 1017.8 0.0
15/12:30am 12.9 10.0 9.7 81 1.6 SSW 15 17 8 9 1018.4 1017.9 0.0
15/12:00am 13.1 10.3 9.9 81 1.6 SSW 15 17 8 9 1018.5 1018.0 0.0
 
Date/Time
CDT
Temp
°C
App
Temp
°C
Dew
Point
°C
Rel
Hum
%
Delta-T
°C
Wind Press
QNH
hPa
Press
MSL
hPa
Rain since
9am
mm
Dir  Spd
km/h
Gust
km/h
Spd
kts
Gust
kts
14/11:30pm 13.7 10.9 10.1 79 1.9 SSW 15 19 8 10 1018.4 1017.9 0.0
14/11:00pm 14.3 12.0 10.3 77 2.1 SSW 13 17 7 9 1018.3 1017.8 0.0
14/10:30pm 15.4 11.7 10.0 70 2.8 SSW 20 30 11 16 1018.2 1017.7 0.0
14/10:00pm 16.9 12.9 10.3 65 3.5 SSW 22 32 12 17 1018.0 1017.5 0.0
14/09:30pm 15.8 12.6 10.1 69 3.0 SSW 17 22 9 12 1017.7 1017.2 0.0
14/09:00pm 16.2 12.5 9.6 65 3.4 SSW 19 26 10 14 1017.4 1016.9 0.0
14/08:30pm 16.9 13.2 9.6 62 3.8 SSW 19 28 10 15 1017.2 1016.7 0.0
14/08:00pm 18.2 13.9 9.5 57 4.6 SSW 22 32 12 17 1016.7 1016.2 0.0
14/07:30pm 18.9 13.5 9.4 54 5.0 SSW 28 39 15 21 1016.7 1016.2 0.0

Other Formats:

Comma delimited format used in spreadsheet applications
http://www.bom.gov.au/fwo/IDS60801/IDS60801.94690.axf

JavaScript Object Notation format (JSON) in row-major order
http://www.bom.gov.au/fwo/IDS60801/IDS60801.94690.json